createdAt,value
2022-08-17T00:01:51.816Z,28.30
2022-08-17T00:04:20.830Z,27.70
2022-08-17T00:06:49.863Z,28.65
2022-08-17T00:09:19.435Z,29.48
2022-08-17T00:12:35.476Z,26.50
2022-08-17T00:14:40.218Z,29.77
2022-08-17T00:17:08.297Z,27.63
2022-08-17T00:19:36.381Z,28.63
2022-08-17T00:22:34.842Z,27.75
2022-08-17T00:24:55.006Z,29.58
2022-08-17T00:27:23.127Z,27.63
2022-08-17T00:29:52.613Z,30.65
2022-08-17T00:33:10.958Z,28.90
2022-08-17T00:35:11.483Z,27.35
2022-08-17T00:37:39.791Z,28.08
2022-08-17T00:40:09.805Z,26.65
2022-08-17T00:42:38.440Z,48.63
2022-08-17T00:45:11.036Z,27.70
2022-08-17T00:47:39.299Z,26.65
2022-08-17T00:50:11.311Z,26.75
2022-08-17T00:52:55.250Z,27.80
2022-08-17T00:55:25.168Z,27.55
2022-08-17T00:57:56.790Z,28.17
2022-08-17T01:00:29.226Z,28.27
2022-08-17T01:03:03.094Z,25.92
2022-08-17T01:05:33.219Z,26.85
2022-08-17T01:08:03.589Z,26.23
2022-08-17T01:10:58.556Z,26.80
2022-08-17T01:13:27.753Z,29.20
2022-08-17T01:16:01.413Z,30.55
2022-08-17T01:18:29.670Z,25.48
2022-08-17T01:20:59.810Z,30.65
2022-08-17T01:23:29.861Z,26.30
2022-08-17T01:26:01.791Z,27.92
2022-08-17T01:28:33.309Z,26.83
2022-08-17T01:31:20.427Z,27.52
2022-08-17T01:33:48.619Z,27.05
2022-08-17T01:36:16.738Z,27.02
2022-08-17T01:38:46.246Z,29.33
2022-08-17T01:41:17.346Z,29.52
2022-08-17T01:43:49.345Z,30.23
2022-08-17T01:46:22.370Z,28.55
2022-08-17T01:48:51.574Z,27.60
2022-08-17T01:51:20.583Z,27.27
2022-08-17T01:53:54.063Z,27.40
2022-08-17T01:56:25.465Z,28.13
2022-08-17T01:58:54.248Z,30.30
2022-08-17T02:01:24.623Z,28.70
2022-08-17T02:03:56.162Z,30.77
2022-08-17T02:06:28.490Z,32.08
2022-08-17T02:09:02.894Z,33.33
2022-08-17T02:11:33.482Z,28.25
2022-08-17T02:14:04.009Z,29.48
2022-08-17T02:16:36.974Z,29.20
2022-08-17T02:19:07.991Z,30.85
2022-08-17T02:21:36.592Z,30.23
2022-08-17T02:24:08.076Z,30.77
2022-08-17T02:26:36.467Z,30.88
2022-08-17T02:29:05.125Z,31.38
2022-08-17T02:31:33.290Z,31.20
2022-08-17T02:34:04.671Z,31.13
2022-08-17T02:36:34.801Z,32.00
2022-08-17T02:39:03.245Z,28.45
2022-08-17T02:41:33.014Z,30.35
2022-08-17T02:44:01.584Z,30.45
2022-08-17T02:46:31.033Z,32.88
2022-08-17T02:48:59.543Z,32.58
2022-08-17T02:51:28.649Z,30.13
2022-08-17T02:54:38.988Z,30.35
2022-08-17T02:56:46.672Z,33.55
2022-08-17T02:59:14.731Z,33.50
2022-08-17T03:07:13.547Z,29.60
2022-08-17T03:09:41.680Z,31.02
2022-08-17T03:12:13.807Z,32.10
2022-08-17T03:14:43.053Z,32.28
2022-08-17T03:17:15.891Z,33.63
2022-08-17T03:19:45.644Z,31.02
2022-08-17T03:22:36.583Z,33.25
2022-08-17T03:25:01.842Z,31.15
2022-08-17T03:27:31.873Z,32.40
2022-08-17T03:29:59.917Z,31.05
2022-08-17T03:32:28.102Z,34.42
2022-08-17T03:35:00.455Z,34.40
2022-08-17T03:37:28.618Z,33.92
2022-08-17T03:39:56.762Z,34.53
2022-08-17T03:42:32.224Z,32.50
2022-08-17T03:45:03.511Z,33.08
2022-08-17T03:47:49.076Z,32.03
2022-08-17T03:50:35.772Z,30.75
2022-08-17T03:53:24.247Z,34.22
2022-08-17T03:56:09.952Z,32.33
2022-08-17T03:58:37.990Z,30.48
2022-08-17T04:01:08.145Z,30.83
2022-08-17T04:07:45.791Z,32.38
2022-08-17T04:10:14.729Z,32.00
2022-08-17T04:12:49.259Z,37.00
2022-08-17T04:15:18.485Z,31.08
2022-08-17T04:17:48.446Z,31.30
2022-08-17T04:20:18.902Z,30.45
2022-08-17T04:22:58.129Z,31.58
2022-08-17T04:25:27.394Z,31.60
2022-08-17T04:27:55.589Z,32.25
2022-08-17T04:30:24.479Z,33.90
2022-08-17T04:33:03.472Z,32.15
2022-08-17T04:47:07.226Z,33.03
2022-08-17T04:49:40.087Z,34.35
2022-08-17T04:52:08.190Z,34.00
2022-08-17T04:54:56.178Z,36.97
2022-08-17T04:57:24.283Z,32.95
2022-08-17T04:59:52.317Z,33.85
2022-08-17T05:02:20.419Z,32.70
2022-08-17T05:04:50.016Z,38.53
2022-08-17T05:07:23.108Z,34.33
2022-08-17T05:09:52.118Z,31.58
2022-08-17T05:12:20.157Z,34.83
2022-08-17T05:14:48.221Z,33.55
2022-08-17T05:17:16.591Z,30.10
2022-08-17T05:19:47.656Z,32.05
2022-08-17T05:22:20.837Z,29.77
2022-08-17T05:24:53.346Z,29.17
2022-08-17T05:27:22.828Z,29.35
2022-08-17T05:29:51.634Z,34.47
2022-08-17T05:32:47.897Z,26.42
2022-08-17T05:35:11.003Z,27.15
2022-08-17T05:37:40.430Z,25.48
2022-08-17T05:40:09.915Z,23.58
2022-08-17T05:42:38.194Z,23.20
2022-08-17T05:45:07.162Z,22.65
2022-08-17T05:47:35.420Z,24.40
2022-08-17T05:50:09.594Z,22.00
2022-08-17T05:52:48.951Z,27.38
2022-08-17T05:55:25.084Z,22.17
2022-08-17T05:58:06.381Z,22.58
2022-08-17T06:00:42.079Z,20.63
2022-08-17T06:03:39.286Z,24.33
2022-08-17T06:06:31.602Z,22.45
2022-08-17T06:09:12.774Z,23.80
2022-08-17T06:11:46.673Z,27.15
2022-08-17T06:14:32.552Z,25.38
2022-08-17T06:17:04.939Z,25.27
2022-08-17T06:19:38.333Z,24.67
2022-08-17T06:22:08.653Z,28.17
2022-08-17T06:24:43.407Z,26.60
2022-08-17T06:27:19.878Z,31.08
2022-08-17T06:29:55.245Z,27.27
2022-08-17T06:32:23.312Z,25.90
2022-08-17T06:34:52.557Z,29.60
2022-08-17T06:37:43.110Z,27.73
2022-08-17T06:40:32.075Z,30.30
2022-08-17T06:43:14.279Z,26.38
2022-08-17T06:45:49.309Z,28.55
2022-08-17T06:48:25.533Z,31.77
2022-08-17T06:51:00.141Z,28.27
2022-08-17T06:53:32.086Z,26.95
2022-08-17T06:56:06.095Z,29.85
2022-08-17T06:58:35.686Z,29.02
2022-08-17T07:01:09.518Z,29.50
2022-08-17T07:03:42.172Z,26.55
2022-08-17T07:06:18.020Z,25.88
2022-08-17T07:08:54.144Z,27.63
2022-08-17T07:11:28.984Z,26.15
2022-08-17T07:14:07.211Z,25.52
2022-08-17T07:16:41.167Z,25.17
2022-08-17T07:19:10.876Z,26.70
2022-08-17T07:21:50.575Z,26.85
2022-08-17T07:24:33.140Z,23.35
2022-08-17T07:27:16.159Z,25.23
2022-08-17T07:29:50.509Z,22.95
2022-08-17T07:32:23.141Z,24.25
2022-08-17T07:35:02.871Z,25.05
2022-08-17T07:37:33.406Z,28.25
2022-08-17T07:40:16.849Z,26.20
2022-08-17T07:43:22.011Z,28.38
2022-08-17T07:46:37.696Z,25.15
2022-08-17T07:49:24.937Z,28.35
2022-08-17T07:52:23.885Z,25.02
2022-08-17T07:54:48.361Z,27.95
2022-08-17T07:57:34.368Z,27.60
2022-08-17T08:00:16.799Z,31.08
2022-08-17T08:02:47.920Z,31.42
2022-08-17T08:05:48.606Z,29.02
2022-08-17T08:08:25.965Z,33.58
2022-08-17T08:11:04.390Z,33.63
2022-08-17T08:13:33.273Z,33.85
2022-08-17T08:16:25.551Z,34.63
2022-08-17T08:18:57.498Z,34.88
2022-08-17T08:21:45.044Z,33.03
2022-08-17T08:24:34.745Z,29.65
2022-08-17T08:27:11.521Z,28.83
2022-08-17T08:29:53.928Z,26.17
2022-08-17T08:32:33.662Z,30.45
2022-08-17T08:35:07.580Z,27.15
2022-08-17T08:37:44.397Z,31.85
2022-08-17T08:40:29.857Z,28.08
2022-08-17T08:43:04.494Z,31.02
2022-08-17T08:45:39.694Z,29.98
2022-08-17T08:48:45.883Z,30.00
2022-08-17T08:51:19.818Z,34.38
2022-08-17T08:53:58.249Z,37.58
2022-08-17T08:56:35.341Z,36.80
2022-08-17T08:59:15.930Z,35.70
2022-08-17T09:01:56.095Z,37.03
2022-08-17T09:05:12.917Z,36.22
2022-08-17T09:07:45.307Z,37.03
2022-08-17T09:10:24.711Z,36.13
2022-08-17T09:13:09.593Z,38.45
2022-08-17T09:15:44.085Z,37.00
2022-08-17T09:19:01.796Z,33.58
2022-08-17T09:21:25.106Z,30.55
2022-08-17T09:24:06.968Z,27.48
2022-08-17T09:26:42.297Z,28.48
2022-08-17T09:29:16.668Z,30.80
2022-08-17T09:31:52.619Z,30.08
2022-08-17T09:34:31.972Z,30.38
2022-08-17T09:37:15.971Z,29.88
2022-08-17T09:39:52.522Z,29.52
2022-08-17T09:42:27.976Z,32.10
2022-08-17T09:45:07.830Z,28.45
2022-08-17T09:47:46.695Z,27.15
2022-08-17T09:51:05.530Z,26.42
2022-08-17T09:53:11.464Z,25.73
2022-08-17T09:56:02.168Z,27.33
2022-08-17T09:58:41.885Z,24.30
2022-08-17T10:01:29.122Z,26.05
2022-08-17T10:04:11.892Z,25.85
2022-08-17T10:06:51.294Z,25.35
2022-08-17T10:09:29.398Z,25.25
2022-08-17T10:12:21.381Z,23.60
2022-08-17T10:15:07.899Z,23.50
2022-08-17T10:17:43.972Z,24.58
2022-08-17T10:33:48.530Z,40.17
2022-08-17T10:36:24.665Z,25.10
2022-08-17T10:39:04.352Z,24.58
2022-08-17T10:41:40.319Z,24.02
2022-08-17T10:44:38.236Z,25.60
2022-08-17T10:47:09.206Z,27.05
2022-08-17T10:49:39.408Z,26.17
2022-08-17T10:52:50.113Z,27.15
2022-08-17T10:55:20.467Z,28.83
2022-08-17T10:57:50.708Z,29.63
2022-08-17T11:01:12.537Z,30.20
2022-08-17T11:03:54.753Z,27.67
2022-08-17T11:06:32.846Z,31.58
2022-08-17T11:09:27.878Z,29.98
2022-08-17T11:12:20.440Z,30.92
2022-08-17T11:15:19.595Z,32.92
2022-08-17T11:18:10.998Z,31.25
2022-08-17T11:21:09.057Z,31.20
2022-08-17T11:24:12.952Z,33.00
2022-08-17T11:26:48.807Z,31.20
2022-08-17T11:29:24.817Z,31.73
2022-08-17T11:32:03.014Z,34.03
2022-08-17T11:34:32.935Z,35.22
2022-08-17T11:37:25.312Z,33.70
2022-08-17T11:40:19.842Z,33.63
2022-08-17T11:43:03.611Z,34.53
2022-08-17T11:45:52.904Z,34.83
2022-08-17T11:48:48.739Z,35.97
2022-08-17T11:51:42.068Z,35.42
2022-08-17T11:54:35.700Z,34.28
2022-08-17T11:57:43.091Z,34.33
2022-08-17T12:00:54.789Z,34.50
2022-08-17T12:03:42.426Z,34.75
2022-08-17T12:06:31.527Z,33.55
2022-08-17T12:09:06.901Z,31.73
2022-08-17T12:11:57.795Z,30.40
2022-08-17T12:17:39.687Z,33.65
2022-08-17T12:20:15.153Z,32.63
2022-08-17T12:22:54.889Z,33.95
2022-08-17T12:25:33.103Z,32.58
2022-08-17T12:28:06.491Z,33.00
2022-08-17T12:30:37.810Z,31.25
2022-08-17T12:33:25.750Z,34.28
2022-08-17T12:36:00.078Z,35.85
2022-08-17T12:38:33.123Z,32.05
2022-08-17T12:41:24.442Z,32.97
2022-08-17T12:44:02.180Z,32.17
2022-08-17T12:46:34.926Z,30.75
2022-08-17T12:49:16.432Z,31.85
2022-08-17T12:51:46.482Z,30.27
2022-08-17T12:54:29.226Z,31.05
2022-08-17T12:57:00.167Z,30.90
2022-08-17T12:59:30.226Z,37.67
2022-08-17T13:01:59.074Z,33.60
2022-08-17T13:04:29.675Z,31.80
2022-08-17T13:06:59.914Z,32.67
2022-08-17T13:09:35.257Z,32.90
2022-08-17T13:12:09.351Z,31.83
2022-08-17T13:14:37.759Z,34.30
2022-08-17T13:17:11.263Z,33.30
2022-08-17T13:19:50.782Z,33.15
2022-08-17T13:22:23.413Z,33.13
2022-08-17T13:24:54.489Z,34.50
2022-08-17T13:27:25.032Z,35.72
2022-08-17T13:29:57.248Z,31.65
2022-08-17T13:32:37.142Z,33.10
2022-08-17T13:35:39.582Z,33.13
2022-08-17T13:38:10.638Z,30.20
2022-08-17T13:40:45.677Z,32.97
2022-08-17T13:43:33.763Z,31.45
2022-08-17T13:46:10.308Z,28.92
2022-08-17T13:48:38.788Z,29.48
2022-08-17T13:51:16.693Z,30.58
2022-08-17T13:54:14.485Z,30.00
2022-08-17T13:56:55.466Z,30.38
2022-08-17T13:59:53.622Z,28.45
2022-08-17T14:02:20.585Z,30.13
2022-08-17T14:04:50.300Z,29.38
2022-08-17T14:07:30.883Z,28.80
2022-08-17T14:10:02.316Z,28.25
2022-08-17T14:12:33.143Z,28.95
2022-08-17T14:15:01.740Z,28.92
2022-08-17T14:17:36.367Z,29.98
2022-08-17T14:20:09.499Z,27.73
2022-08-17T14:22:44.029Z,27.10
2022-08-17T14:25:13.423Z,26.92
2022-08-17T14:27:41.880Z,25.77
2022-08-17T14:30:23.090Z,26.25
2022-08-17T14:32:52.163Z,26.48
2022-08-17T14:35:23.231Z,27.08
2022-08-17T14:37:53.827Z,25.50
2022-08-17T14:40:24.941Z,27.25
2022-08-17T14:42:55.487Z,27.17
2022-08-17T14:45:31.470Z,28.23
2022-08-17T14:48:04.164Z,24.92
2022-08-17T14:50:35.542Z,27.33
2022-08-17T14:53:06.377Z,26.38
2022-08-17T14:55:35.019Z,27.23
2022-08-17T14:58:03.987Z,27.23
2022-08-17T15:00:32.498Z,27.92
2022-08-17T15:03:01.905Z,27.63
2022-08-17T15:05:32.545Z,29.60
2022-08-17T15:08:01.578Z,27.60
2022-08-17T15:10:32.376Z,27.13
2022-08-17T15:13:01.098Z,27.52
2022-08-17T15:15:29.656Z,28.63
2022-08-17T15:17:58.652Z,29.00
2022-08-17T15:20:29.026Z,27.77
2022-08-17T15:22:59.054Z,27.67
2022-08-17T15:25:29.223Z,28.38
2022-08-17T15:27:59.105Z,31.55
2022-08-17T15:30:27.990Z,31.38
2022-08-17T15:32:57.450Z,28.98
2022-08-17T15:35:29.175Z,27.90
2022-08-17T15:38:04.622Z,28.58
2022-08-17T15:40:34.951Z,29.73
2022-08-17T15:43:07.388Z,29.30
2022-08-17T15:45:35.530Z,29.20
2022-08-17T15:48:03.868Z,30.35
2022-08-17T15:50:33.923Z,29.13
2022-08-17T15:53:03.476Z,30.58
2022-08-17T15:55:32.865Z,28.88
2022-08-17T15:58:01.387Z,30.58
2022-08-17T16:00:31.060Z,27.90
2022-08-17T16:03:46.148Z,30.90
2022-08-17T16:05:54.988Z,31.08
2022-08-17T16:08:25.278Z,34.25
2022-08-17T16:10:53.524Z,33.45
2022-08-17T16:13:23.749Z,32.88
2022-08-17T16:15:56.963Z,33.42
2022-08-17T16:18:31.031Z,33.42
2022-08-17T16:21:20.539Z,30.48
2022-08-17T16:23:49.532Z,32.88
2022-08-17T16:26:18.050Z,31.33
2022-08-17T16:28:46.682Z,32.58
2022-08-17T16:31:17.599Z,30.95
2022-08-17T16:34:03.873Z,33.92
2022-08-17T16:36:33.895Z,32.53
2022-08-17T16:39:02.040Z,35.10
2022-08-17T16:41:45.372Z,32.20
2022-08-17T16:44:15.358Z,31.80
2022-08-17T16:46:46.203Z,33.03
2022-08-17T16:49:35.728Z,34.10
2022-08-17T16:52:04.543Z,32.58
2022-08-17T16:54:35.508Z,31.20
2022-08-17T16:57:06.524Z,31.83
2022-08-17T16:59:41.006Z,32.00
2022-08-17T17:02:19.443Z,31.25
2022-08-17T17:04:52.820Z,31.33
2022-08-17T17:07:49.568Z,32.58
2022-08-17T17:10:20.992Z,32.85
2022-08-17T17:13:03.989Z,33.30
2022-08-17T17:15:44.004Z,31.65
2022-08-17T17:18:14.808Z,35.00
2022-08-17T17:20:50.456Z,32.42
2022-08-17T17:23:32.600Z,35.63
2022-08-17T17:26:11.057Z,31.90
2022-08-17T17:28:48.748Z,32.67
2022-08-17T17:31:19.806Z,33.90
2022-08-17T17:33:52.787Z,32.70
2022-08-17T17:36:27.212Z,34.70
2022-08-17T17:39:01.363Z,36.70
2022-08-17T17:41:33.863Z,35.08
2022-08-17T17:44:05.962Z,34.35
2022-08-17T17:46:39.547Z,35.85
2022-08-17T17:49:10.620Z,37.17
2022-08-17T17:52:07.196Z,35.72
2022-08-17T17:54:50.607Z,37.53
2022-08-17T17:57:28.104Z,36.58
2022-08-17T18:00:04.447Z,37.60
2022-08-17T18:02:51.894Z,37.17
2022-08-17T18:05:48.374Z,35.90
2022-08-17T18:08:33.823Z,37.75
2022-08-17T18:11:13.886Z,36.20
2022-08-17T18:13:59.426Z,36.20
2022-08-17T18:16:29.667Z,36.58
2022-08-17T18:19:01.351Z,37.88
2022-08-17T18:21:38.876Z,35.13
2022-08-17T18:24:09.004Z,38.42
2022-08-17T18:26:48.286Z,38.30
2022-08-17T18:29:38.405Z,36.45
2022-08-17T18:32:24.000Z,37.33
2022-08-17T18:34:54.677Z,36.72
2022-08-17T18:37:44.851Z,39.30
2022-08-17T18:40:32.067Z,39.70
2022-08-17T18:43:06.360Z,39.10
2022-08-17T18:45:41.519Z,41.92
2022-08-17T18:48:22.119Z,40.85
2022-08-17T18:50:53.298Z,43.13
2022-08-17T18:53:39.489Z,40.63
2022-08-17T18:56:26.267Z,41.53
2022-08-17T18:59:07.285Z,39.17
2022-08-17T19:01:53.621Z,41.78
2022-08-17T19:04:34.892Z,41.55
2022-08-17T19:07:25.716Z,38.50
2022-08-17T19:09:59.964Z,43.17
2022-08-17T19:12:34.185Z,41.78
2022-08-17T19:15:03.585Z,42.80
2022-08-17T19:17:43.837Z,38.30
2022-08-17T19:20:18.572Z,44.25
2022-08-17T19:22:58.530Z,37.80
2022-08-17T19:25:31.666Z,39.47
2022-08-17T19:28:05.359Z,42.28
2022-08-17T19:30:51.142Z,36.15
2022-08-17T19:33:19.998Z,42.15
2022-08-17T19:35:55.355Z,41.03
2022-08-17T19:38:35.014Z,39.65
2022-08-17T19:41:12.557Z,41.40
2022-08-17T19:44:07.789Z,41.42
2022-08-17T19:46:48.830Z,41.85
2022-08-17T19:49:33.219Z,40.95
2022-08-17T19:52:37.496Z,45.47
2022-08-17T19:55:16.927Z,42.60
2022-08-17T19:58:03.027Z,41.75
2022-08-17T20:00:33.292Z,43.75
2022-08-17T20:03:06.452Z,47.85
2022-08-17T20:06:01.396Z,43.47
2022-08-17T20:08:30.277Z,45.55
2022-08-17T20:11:03.737Z,45.30
2022-08-17T20:13:40.189Z,42.25
2022-08-17T20:16:11.144Z,44.85
2022-08-17T20:18:47.535Z,47.58
2022-08-17T20:21:20.548Z,44.88
2022-08-17T20:23:54.792Z,45.40
2022-08-17T20:26:27.324Z,47.15
2022-08-17T20:29:37.586Z,46.53
2022-08-17T20:32:18.466Z,49.95
2022-08-17T20:34:48.783Z,48.35
2022-08-17T20:37:32.680Z,51.38
2022-08-17T20:40:21.323Z,52.33
2022-08-17T20:42:49.616Z,51.63
2022-08-17T20:46:08.786Z,50.78
2022-08-17T20:48:42.876Z,56.17
2022-08-17T20:51:19.922Z,52.15
2022-08-17T20:54:35.729Z,54.72
2022-08-17T20:57:06.744Z,55.70
2022-08-17T21:00:16.541Z,50.47
2022-08-17T21:02:46.744Z,54.63
2022-08-17T21:05:59.727Z,55.20
2022-08-17T21:08:31.746Z,52.45
2022-08-17T21:11:01.176Z,56.55
2022-08-17T21:13:57.876Z,58.65
2022-08-17T21:17:01.463Z,56.03
2022-08-17T21:20:00.652Z,58.55
2022-08-17T21:22:47.112Z,61.00
2022-08-17T21:25:28.066Z,57.03
2022-08-17T21:39:40.733Z,57.55
2022-08-17T21:42:09.421Z,57.88
2022-08-17T21:44:41.616Z,60.00
2022-08-17T21:47:21.001Z,60.15
2022-08-17T21:49:51.994Z,63.33
2022-08-17T21:52:24.359Z,66.15
2022-08-17T21:54:56.747Z,66.03
2022-08-17T21:57:28.274Z,61.25
2022-08-17T21:59:59.222Z,60.58
2022-08-17T22:02:31.324Z,63.22
2022-08-17T22:05:02.366Z,63.45
2022-08-17T22:07:39.938Z,61.55
2022-08-17T22:10:30.452Z,59.67
2022-08-17T22:13:16.945Z,56.85
2022-08-17T22:15:48.070Z,60.28
2022-08-17T22:18:20.863Z,59.40
2022-08-17T22:20:53.293Z,56.95
2022-08-17T22:23:46.832Z,59.67
2022-08-17T22:26:18.556Z,61.20
2022-08-17T22:28:49.165Z,56.10
2022-08-17T22:31:19.102Z,59.38
2022-08-17T22:33:49.537Z,57.53
2022-08-17T22:36:29.176Z,54.03
2022-08-17T22:38:59.753Z,56.80
2022-08-17T22:41:50.488Z,51.47
2022-08-17T22:44:23.175Z,61.42
2022-08-17T22:47:06.694Z,52.85
2022-08-17T22:49:53.767Z,56.28
2022-08-17T22:52:32.630Z,56.08
2022-08-17T22:55:26.279Z,49.97
2022-08-17T22:58:13.062Z,52.25
2022-08-17T23:00:43.633Z,49.35
2022-08-17T23:03:15.228Z,48.10
2022-08-17T23:05:47.395Z,51.67
2022-08-17T23:08:21.081Z,51.58
2022-08-17T23:10:49.765Z,47.47
2022-08-17T23:13:21.301Z,47.88
2022-08-17T23:15:50.975Z,51.22
2022-08-17T23:18:19.084Z,50.67
2022-08-17T23:20:47.783Z,48.67
2022-08-17T23:23:18.003Z,49.22
2022-08-17T23:25:49.358Z,50.85
2022-08-17T23:28:21.502Z,50.17
2022-08-17T23:30:49.593Z,49.30
2022-08-17T23:33:22.306Z,52.70
2022-08-17T23:35:50.343Z,50.58
2022-08-17T23:38:18.505Z,46.03
2022-08-17T23:40:46.627Z,45.97
2022-08-17T23:43:24.106Z,44.97
2022-08-17T23:45:56.189Z,50.17
2022-08-17T23:48:35.268Z,49.65
2022-08-17T23:51:10.649Z,47.72
2022-08-17T23:53:44.071Z,49.95
2022-08-17T23:56:12.171Z,52.38
2022-08-17T23:58:42.214Z,51.85
